createdAt,value
2022-08-24T00:00:10.272Z,58.20
2022-08-24T00:02:37.182Z,58.20
2022-08-24T00:05:05.048Z,58.20
2022-08-24T00:07:31.997Z,58.20
2022-08-24T00:09:59.921Z,58.30
2022-08-24T00:12:27.076Z,58.40
2022-08-24T00:14:54.750Z,58.50
2022-08-24T00:17:21.482Z,58.50
2022-08-24T00:19:48.224Z,58.60
2022-08-24T00:22:14.899Z,58.60
2022-08-24T00:24:41.643Z,58.70
2022-08-24T00:27:11.357Z,58.70
2022-08-24T00:29:38.692Z,58.90
2022-08-24T00:32:06.177Z,59.00
2022-08-24T00:34:32.969Z,59.00
2022-08-24T00:36:59.928Z,59.10
2022-08-24T00:39:26.595Z,59.20
2022-08-24T00:41:53.578Z,59.20
2022-08-24T00:44:21.349Z,59.30
2022-08-24T00:47:03.577Z,59.40
2022-08-24T00:49:42.040Z,59.50
2022-08-24T00:52:17.932Z,59.60
2022-08-24T00:54:49.733Z,59.70
2022-08-24T00:57:20.090Z,59.80
2022-08-24T00:59:51.049Z,60.00
2022-08-24T01:02:22.276Z,60.10
2022-08-24T01:04:58.247Z,60.20
2022-08-24T01:07:27.896Z,60.50
2022-08-24T01:09:58.078Z,60.60
2022-08-24T01:12:26.839Z,60.70
2022-08-24T01:14:55.917Z,60.70
2022-08-24T01:17:46.547Z,60.70
2022-08-24T01:20:14.047Z,60.70
2022-08-24T01:23:03.797Z,61.70
2022-08-24T01:25:32.742Z,61.20
2022-08-24T01:28:06.986Z,61.20
2022-08-24T01:30:36.720Z,61.20
2022-08-24T01:33:07.123Z,61.80
2022-08-24T01:35:36.508Z,62.10
2022-08-24T01:38:08.391Z,62.40
2022-08-24T01:40:46.539Z,62.70
2022-08-24T01:43:15.115Z,63.00
2022-08-24T01:45:42.915Z,63.10
2022-08-24T01:48:10.106Z,63.20
2022-08-24T01:50:36.796Z,63.40
2022-08-24T01:53:06.129Z,63.50
2022-08-24T01:55:33.620Z,63.50
2022-08-24T01:58:00.787Z,63.60
2022-08-24T02:00:28.006Z,63.60
2022-08-24T02:02:57.085Z,63.50
2022-08-24T02:05:25.020Z,63.60
2022-08-24T02:07:52.586Z,63.90
2022-08-24T02:10:19.822Z,64.10
2022-08-24T02:13:01.056Z,64.40
2022-08-24T02:15:40.335Z,64.70
2022-08-24T02:18:14.802Z,64.90
2022-08-24T02:20:42.124Z,65.00
2022-08-24T02:23:08.856Z,65.20
2022-08-24T02:25:35.582Z,65.50
2022-08-24T02:28:02.957Z,65.90
2022-08-24T02:30:30.434Z,66.30
2022-08-24T02:32:57.978Z,66.60
2022-08-24T02:35:25.058Z,66.90
2022-08-24T02:37:52.238Z,67.20
2022-08-24T02:40:19.088Z,67.40
2022-08-24T02:42:45.896Z,67.50
2022-08-24T02:45:12.675Z,67.70
2022-08-24T02:47:39.789Z,67.90
2022-08-24T02:50:12.070Z,68.10
2022-08-24T02:52:39.769Z,68.50
2022-08-24T02:55:13.527Z,68.70
2022-08-24T02:57:41.165Z,68.90
2022-08-24T03:00:12.537Z,69.10
2022-08-24T03:02:39.881Z,69.40
2022-08-24T03:05:08.643Z,69.60
2022-08-24T03:07:35.777Z,69.90
2022-08-24T03:10:03.519Z,70.10
2022-08-24T03:12:30.186Z,70.30
2022-08-24T03:14:56.967Z,70.50
2022-08-24T03:17:23.993Z,70.60
2022-08-24T03:19:50.710Z,70.70
2022-08-24T03:22:17.382Z,70.70
2022-08-24T03:24:46.403Z,71.00
2022-08-24T03:27:14.118Z,71.00
2022-08-24T03:29:41.256Z,71.20
2022-08-24T03:32:08.201Z,71.30
2022-08-24T03:34:35.309Z,71.60
2022-08-24T03:37:02.361Z,71.90
2022-08-24T03:39:29.124Z,72.10
2022-08-24T03:41:56.522Z,72.30
2022-08-24T03:44:25.678Z,72.50
2022-08-24T03:46:53.245Z,72.70
2022-08-24T03:49:20.481Z,72.90
2022-08-24T03:51:47.370Z,73.00
2022-08-24T03:54:16.629Z,73.20
2022-08-24T03:56:43.431Z,73.40
2022-08-24T03:59:10.713Z,73.40
2022-08-24T04:01:38.968Z,73.60
2022-08-24T04:04:06.296Z,73.70
2022-08-24T04:06:32.994Z,73.80
2022-08-24T04:08:59.746Z,74.00
2022-08-24T04:11:29.174Z,74.10
2022-08-24T04:13:58.026Z,74.20
2022-08-24T04:16:26.859Z,74.30
2022-08-24T04:18:53.679Z,74.60
2022-08-24T04:21:25.060Z,74.40
2022-08-24T04:23:52.262Z,74.60
2022-08-24T04:26:43.409Z,74.60
2022-08-24T04:29:10.675Z,74.70
2022-08-24T04:31:38.683Z,74.80
2022-08-24T04:34:06.134Z,74.90
2022-08-24T04:36:33.176Z,75.10
2022-08-24T04:39:01.049Z,75.20
2022-08-24T04:41:31.543Z,75.40
2022-08-24T04:43:59.495Z,75.50
2022-08-24T04:46:27.299Z,75.60
2022-08-24T04:48:54.691Z,75.60
2022-08-24T04:51:21.952Z,75.80
2022-08-24T04:53:50.507Z,75.90
2022-08-24T04:56:23.907Z,75.90
2022-08-24T04:58:55.288Z,76.20
2022-08-24T05:01:25.553Z,76.30
2022-08-24T05:03:54.344Z,76.50
2022-08-24T05:06:24.102Z,76.60
2022-08-24T05:08:51.727Z,76.60
2022-08-24T05:11:19.876Z,76.70
2022-08-24T05:13:47.344Z,76.70
2022-08-24T05:16:17.700Z,76.80
2022-08-24T05:18:45.418Z,76.90
2022-08-24T05:21:15.385Z,76.90
2022-08-24T05:23:43.365Z,77.00
2022-08-24T05:26:12.752Z,77.00
2022-08-24T05:28:40.338Z,77.00
2022-08-24T05:31:30.168Z,77.00
2022-08-24T05:33:57.818Z,77.00
2022-08-24T05:36:30.070Z,76.80
2022-08-24T05:39:00.534Z,76.60
2022-08-24T05:41:28.408Z,76.40
2022-08-24T05:43:55.164Z,76.10
2022-08-24T05:46:21.920Z,75.90
2022-08-24T05:48:52.699Z,75.60
2022-08-24T05:51:21.172Z,75.40
2022-08-24T05:53:48.074Z,75.20
2022-08-24T05:56:17.211Z,75.00
2022-08-24T05:58:44.789Z,74.80
2022-08-24T06:01:21.011Z,74.50
2022-08-24T06:03:49.900Z,74.40
2022-08-24T06:06:19.274Z,74.20
2022-08-24T06:08:49.153Z,74.00
2022-08-24T06:11:29.943Z,73.70
2022-08-24T06:14:01.467Z,73.40
2022-08-24T06:16:29.205Z,73.10
2022-08-24T06:18:56.601Z,72.90
2022-08-24T06:21:28.360Z,72.60
2022-08-24T06:23:56.332Z,72.50
2022-08-24T06:26:41.778Z,72.20
2022-08-24T06:29:09.190Z,72.10
2022-08-24T06:31:40.753Z,71.90
2022-08-24T06:34:10.094Z,71.60
2022-08-24T06:36:36.834Z,71.40
2022-08-24T06:39:06.937Z,71.10
2022-08-24T06:41:36.621Z,70.90
2022-08-24T06:44:04.334Z,70.40
2022-08-24T06:46:32.961Z,69.70
2022-08-24T06:49:00.075Z,69.90
2022-08-24T06:51:26.924Z,69.60
2022-08-24T06:53:56.050Z,69.20
2022-08-24T06:56:23.023Z,68.90
2022-08-24T06:58:49.780Z,68.60
2022-08-24T07:01:25.697Z,68.50
2022-08-24T07:03:53.472Z,68.10
2022-08-24T07:06:20.888Z,67.80
2022-08-24T07:08:47.823Z,67.30
2022-08-24T07:11:17.572Z,67.00
2022-08-24T07:13:47.420Z,66.60
2022-08-24T07:16:22.016Z,66.20
2022-08-24T07:18:50.163Z,65.80
2022-08-24T07:21:19.516Z,65.40
2022-08-24T07:23:47.911Z,65.00
2022-08-24T07:26:22.705Z,64.70
2022-08-24T07:28:56.089Z,64.30
2022-08-24T07:31:22.863Z,64.20
2022-08-24T07:33:49.671Z,64.00
2022-08-24T07:36:22.039Z,63.70
2022-08-24T07:38:52.048Z,63.40
2022-08-24T07:41:40.389Z,63.80
2022-08-24T07:44:06.658Z,62.70
2022-08-24T07:46:33.631Z,62.40
2022-08-24T07:49:11.537Z,62.20
2022-08-24T07:51:40.117Z,62.00
2022-08-24T07:54:13.553Z,61.80
2022-08-24T07:56:41.254Z,61.80
2022-08-24T07:59:12.854Z,61.80
2022-08-24T08:01:40.810Z,61.90
2022-08-24T08:04:07.939Z,61.90
2022-08-24T08:06:34.860Z,61.80
2022-08-24T08:09:02.935Z,61.50
2022-08-24T08:11:29.727Z,61.40
2022-08-24T08:13:56.434Z,61.30
2022-08-24T08:16:23.185Z,61.40
2022-08-24T08:18:56.459Z,61.50
2022-08-24T08:21:50.922Z,61.30
2022-08-24T08:24:20.724Z,61.40
2022-08-24T08:26:52.908Z,61.40
2022-08-24T08:29:20.220Z,61.20
2022-08-24T08:31:47.351Z,61.00
2022-08-24T08:34:14.375Z,61.00
2022-08-24T08:36:41.750Z,60.90
2022-08-24T08:39:11.577Z,60.90
2022-08-24T08:41:59.887Z,61.50
2022-08-24T08:44:32.737Z,60.40
2022-08-24T08:47:08.306Z,60.20
2022-08-24T08:49:53.607Z,59.90
2022-08-24T08:52:38.930Z,59.90
2022-08-24T08:55:11.748Z,59.60
2022-08-24T08:58:11.257Z,59.40
2022-08-24T09:00:43.941Z,59.30
2022-08-24T09:03:38.313Z,59.30
2022-08-24T09:06:18.055Z,59.00
2022-08-24T09:09:03.253Z,58.50
2022-08-24T09:11:37.338Z,58.00
2022-08-24T09:14:37.084Z,57.70
2022-08-24T09:17:18.614Z,57.30
2022-08-24T09:20:07.633Z,57.30
2022-08-24T09:22:43.565Z,57.20
2022-08-24T09:25:32.616Z,57.00
2022-08-24T09:28:05.499Z,56.60
2022-08-24T09:31:18.673Z,56.60
2022-08-24T09:34:09.128Z,56.40
2022-08-24T09:37:00.497Z,56.10
2022-08-24T09:39:37.973Z,56.10
2022-08-24T09:42:38.846Z,56.00
2022-08-24T09:45:33.816Z,55.60
2022-08-24T09:48:19.018Z,55.60
2022-08-24T09:51:07.439Z,55.40
2022-08-24T09:54:15.855Z,55.00
2022-08-24T09:57:20.163Z,54.60
2022-08-24T10:00:14.118Z,54.60
2022-08-24T10:03:02.099Z,54.70
2022-08-24T10:05:47.698Z,54.50
2022-08-24T10:08:45.801Z,54.40
2022-08-24T10:11:18.539Z,54.40
2022-08-24T10:14:09.499Z,54.40
2022-08-24T10:16:49.625Z,54.10
2022-08-24T10:19:34.874Z,54.00
2022-08-24T10:22:16.356Z,53.70
2022-08-24T10:25:10.783Z,53.40
2022-08-24T10:28:01.376Z,53.20
2022-08-24T10:31:18.429Z,53.10
2022-08-24T10:34:13.683Z,53.10
2022-08-24T10:37:31.204Z,53.00
2022-08-24T10:40:19.730Z,52.80
2022-08-24T10:43:23.945Z,52.80
2022-08-24T10:46:10.689Z,53.00
2022-08-24T10:48:52.188Z,52.90
2022-08-24T10:51:58.084Z,53.00
2022-08-24T10:54:25.124Z,53.10
2022-08-24T10:57:15.292Z,53.20
2022-08-24T11:00:01.204Z,53.20
2022-08-24T11:02:28.012Z,53.10
2022-08-24T11:04:59.669Z,53.00
2022-08-24T11:07:27.784Z,53.00
2022-08-24T11:10:01.762Z,53.00
2022-08-24T11:12:30.578Z,53.00
2022-08-24T11:15:04.981Z,53.30
2022-08-24T11:17:33.257Z,52.30
2022-08-24T11:20:00.074Z,52.10
2022-08-24T11:22:30.309Z,51.70
2022-08-24T11:25:13.578Z,51.10
2022-08-24T11:27:47.986Z,50.90
2022-08-24T11:30:20.578Z,50.70
2022-08-24T11:32:51.538Z,50.30
2022-08-24T11:35:33.806Z,50.20
2022-08-24T11:38:06.422Z,49.60
2022-08-24T11:40:39.522Z,49.40
2022-08-24T11:43:18.254Z,49.00
2022-08-24T11:46:15.085Z,48.70
2022-08-24T11:49:02.923Z,48.30
2022-08-24T11:51:55.862Z,48.00
2022-08-24T11:54:24.642Z,47.70
2022-08-24T11:57:12.613Z,47.00
2022-08-24T11:59:54.659Z,45.70
2022-08-24T12:02:25.634Z,45.20
2022-08-24T12:05:23.768Z,45.20
2022-08-24T12:07:56.463Z,44.90
2022-08-24T12:10:32.891Z,45.00
2022-08-24T12:13:37.908Z,44.70
2022-08-24T12:16:29.411Z,44.40
2022-08-24T12:19:17.361Z,44.20
2022-08-24T12:21:52.141Z,43.90
2022-08-24T12:24:27.011Z,43.90
2022-08-24T12:27:02.553Z,43.80
2022-08-24T12:29:49.509Z,43.80
2022-08-24T12:32:27.056Z,43.70
2022-08-24T12:34:58.888Z,43.60
2022-08-24T12:37:28.772Z,43.50
2022-08-24T12:39:58.596Z,43.40
2022-08-24T12:42:52.213Z,43.30
2022-08-24T12:45:21.237Z,43.20
2022-08-24T12:48:09.715Z,43.20
2022-08-24T12:50:51.650Z,42.90
2022-08-24T12:53:27.491Z,42.80
2022-08-24T12:56:07.022Z,42.70
2022-08-24T12:58:58.552Z,42.60
2022-08-24T13:01:29.912Z,42.60
2022-08-24T13:04:18.348Z,42.90
2022-08-24T13:07:11.878Z,42.90
2022-08-24T13:09:45.164Z,42.80
2022-08-24T13:12:30.800Z,42.80
2022-08-24T13:15:28.512Z,42.40
2022-08-24T13:18:02.532Z,42.10
2022-08-24T13:20:36.237Z,42.20
2022-08-24T13:23:12.132Z,42.00
2022-08-24T13:25:42.626Z,41.90
2022-08-24T13:28:30.773Z,41.80
2022-08-24T13:31:04.412Z,41.80
2022-08-24T13:33:36.541Z,42.00
2022-08-24T13:36:06.306Z,42.00
2022-08-24T13:38:32.947Z,41.90
2022-08-24T13:41:08.537Z,42.00
2022-08-24T13:43:52.512Z,41.90
2022-08-24T13:46:31.586Z,41.90
2022-08-24T13:49:17.837Z,42.10
2022-08-24T13:52:10.343Z,42.20
2022-08-24T13:54:44.354Z,42.20
2022-08-24T13:57:30.948Z,42.30
2022-08-24T14:00:21.752Z,42.50
2022-08-24T14:03:14.992Z,42.70
2022-08-24T14:05:46.215Z,42.60
2022-08-24T14:08:34.534Z,42.70
2022-08-24T14:11:06.760Z,42.90
2022-08-24T14:14:00.932Z,42.90
2022-08-24T14:17:19.293Z,42.80
2022-08-24T14:20:22.244Z,42.70
2022-08-24T14:23:10.741Z,42.60
2022-08-24T14:25:37.578Z,42.70
2022-08-24T14:28:30.973Z,42.90
2022-08-24T14:31:20.628Z,42.70
2022-08-24T14:34:26.383Z,42.80
2022-08-24T14:37:02.282Z,42.80
2022-08-24T14:39:47.876Z,42.80
2022-08-24T14:42:35.635Z,42.70
2022-08-24T14:45:05.709Z,42.60
2022-08-24T14:47:47.809Z,42.60
2022-08-24T14:50:20.388Z,42.60
2022-08-24T14:53:25.567Z,42.70
2022-08-24T14:56:31.627Z,42.70
2022-08-24T14:59:30.622Z,42.70
2022-08-24T15:02:35.526Z,42.60
2022-08-24T15:05:23.115Z,42.70
2022-08-24T15:08:08.924Z,42.80
2022-08-24T15:10:48.456Z,42.80
2022-08-24T15:13:28.815Z,42.90
2022-08-24T15:16:05.374Z,42.80
2022-08-24T15:18:40.278Z,42.90
2022-08-24T15:21:21.636Z,42.70
2022-08-24T15:24:06.834Z,42.60
2022-08-24T15:26:44.764Z,42.50
2022-08-24T15:29:17.256Z,42.30
2022-08-24T15:32:03.822Z,42.20
2022-08-24T15:34:50.543Z,42.40
2022-08-24T15:37:32.736Z,42.30
2022-08-24T15:40:00.297Z,42.10
2022-08-24T15:42:30.625Z,42.00
2022-08-24T15:45:01.202Z,41.80
2022-08-24T15:47:37.168Z,41.80
2022-08-24T15:50:27.336Z,41.70
2022-08-24T15:53:14.820Z,41.60
2022-08-24T15:55:45.827Z,41.60
2022-08-24T15:58:31.698Z,41.70
2022-08-24T16:01:28.944Z,41.70
2022-08-24T16:03:56.721Z,41.50
2022-08-24T16:06:32.610Z,41.60
2022-08-24T16:09:08.255Z,41.60
2022-08-24T16:11:39.963Z,41.70
2022-08-24T16:14:27.613Z,41.70
2022-08-24T16:16:55.532Z,41.70
2022-08-24T16:19:29.141Z,41.80
2022-08-24T16:21:58.432Z,41.70
2022-08-24T16:24:41.463Z,41.70
2022-08-24T16:27:10.266Z,41.70
2022-08-24T16:29:37.157Z,41.80
2022-08-24T16:32:30.556Z,41.80
2022-08-24T16:35:10.277Z,41.80
2022-08-24T16:37:37.298Z,41.90
2022-08-24T16:40:05.358Z,42.00
2022-08-24T16:42:32.884Z,41.80
2022-08-24T16:44:59.831Z,41.90
2022-08-24T16:47:28.169Z,42.00
2022-08-24T16:49:55.750Z,42.00
2022-08-24T16:52:22.716Z,42.00
2022-08-24T16:54:49.536Z,42.00
2022-08-24T16:57:28.032Z,42.00
2022-08-24T16:59:55.302Z,42.00
2022-08-24T17:02:23.370Z,42.10
2022-08-24T17:04:50.444Z,42.20
2022-08-24T17:07:22.594Z,42.20
2022-08-24T17:09:49.376Z,42.30
2022-08-24T17:12:16.385Z,42.40
2022-08-24T17:14:44.334Z,42.50
2022-08-24T17:17:20.491Z,42.60
2022-08-24T17:19:50.945Z,42.70
2022-08-24T17:22:17.855Z,42.90
2022-08-24T17:24:45.517Z,42.90
2022-08-24T17:27:13.704Z,43.00
2022-08-24T17:29:42.017Z,43.00
2022-08-24T17:32:08.907Z,43.00
2022-08-24T17:34:35.859Z,43.00
2022-08-24T17:37:02.993Z,43.10
2022-08-24T17:39:29.713Z,43.20
2022-08-24T17:41:58.602Z,43.30
2022-08-24T17:44:28.345Z,43.30
2022-08-24T17:46:59.403Z,43.40
2022-08-24T17:49:27.990Z,43.60
2022-08-24T17:51:55.952Z,43.60
2022-08-24T17:54:23.394Z,43.80
2022-08-24T17:56:50.974Z,43.90
2022-08-24T17:59:29.744Z,43.90
2022-08-24T18:02:02.193Z,44.00
2022-08-24T18:04:31.032Z,44.10
2022-08-24T18:07:01.192Z,44.20
2022-08-24T18:09:35.293Z,44.40
2022-08-24T18:12:06.816Z,44.40
2022-08-24T18:14:34.655Z,44.50
2022-08-24T18:17:04.188Z,44.60
2022-08-24T18:19:32.951Z,44.70
2022-08-24T18:22:01.812Z,44.90
2022-08-24T18:24:32.413Z,44.90
2022-08-24T18:27:10.269Z,45.10
2022-08-24T18:29:40.126Z,45.20
2022-08-24T18:32:07.153Z,45.30
2022-08-24T18:34:34.620Z,45.40
2022-08-24T18:37:01.633Z,45.60
2022-08-24T18:39:28.696Z,45.70
2022-08-24T18:41:57.481Z,45.80
2022-08-24T18:44:28.254Z,46.00
2022-08-24T18:46:57.825Z,46.20
2022-08-24T18:49:24.575Z,46.30
2022-08-24T18:51:51.612Z,46.40
2022-08-24T18:54:23.938Z,46.60
2022-08-24T18:56:51.086Z,46.80
2022-08-24T18:59:19.609Z,47.00
2022-08-24T19:02:07.848Z,47.10
2022-08-24T19:04:45.011Z,47.20
2022-08-24T19:07:12.377Z,47.50
2022-08-24T19:09:39.420Z,47.60
2022-08-24T19:12:08.534Z,47.70
2022-08-24T19:14:36.611Z,47.90
2022-08-24T19:17:06.276Z,48.00
2022-08-24T19:19:33.399Z,48.20
2022-08-24T19:22:01.308Z,48.40
2022-08-24T19:24:29.696Z,48.50
2022-08-24T19:26:56.396Z,48.70
2022-08-24T19:29:54.562Z,48.80
2022-08-24T19:32:22.491Z,49.00
2022-08-24T19:34:51.174Z,49.20
2022-08-24T19:37:18.065Z,49.30
2022-08-24T19:39:45.888Z,49.40
2022-08-24T19:42:15.835Z,49.50
2022-08-24T19:45:01.497Z,49.60
2022-08-24T19:47:28.447Z,49.70
2022-08-24T19:49:55.199Z,49.90
2022-08-24T19:52:22.199Z,50.10
2022-08-24T19:54:49.049Z,50.30
2022-08-24T19:57:33.949Z,50.50
2022-08-24T20:00:25.050Z,50.60
2022-08-24T20:02:54.759Z,50.50
2022-08-24T20:05:23.872Z,50.90
2022-08-24T20:07:51.596Z,51.00
2022-08-24T20:10:21.341Z,51.10
2022-08-24T20:12:48.449Z,51.30
2022-08-24T20:15:15.669Z,51.40
2022-08-24T20:17:42.504Z,51.40
2022-08-24T20:20:11.787Z,51.40
2022-08-24T20:22:38.566Z,51.40
2022-08-24T20:25:06.103Z,51.40
2022-08-24T20:27:33.146Z,51.40
2022-08-24T20:30:00.393Z,51.40
2022-08-24T20:32:29.351Z,51.40
2022-08-24T20:34:56.163Z,51.40
2022-08-24T20:37:26.036Z,51.40
2022-08-24T20:39:57.089Z,51.40
2022-08-24T20:42:26.734Z,51.50
2022-08-24T20:44:54.683Z,51.50
2022-08-24T20:47:22.291Z,51.50
2022-08-24T20:49:49.592Z,51.60
2022-08-24T20:52:16.737Z,51.50
2022-08-24T20:54:43.536Z,51.50
2022-08-24T20:57:15.564Z,51.50
2022-08-24T20:59:42.380Z,51.60
2022-08-24T21:02:09.227Z,51.60
2022-08-24T21:04:35.971Z,51.80
2022-08-24T21:07:02.945Z,51.70
2022-08-24T21:09:29.689Z,51.80
2022-08-24T21:11:56.652Z,51.90
2022-08-24T21:14:23.411Z,51.90
2022-08-24T21:16:50.103Z,52.00
2022-08-24T21:19:17.512Z,52.00
2022-08-24T21:21:46.771Z,52.10
2022-08-24T21:24:15.464Z,52.10
2022-08-24T21:26:42.423Z,52.00
2022-08-24T21:29:09.885Z,52.00
2022-08-24T21:31:36.966Z,52.10
2022-08-24T21:34:22.458Z,52.10
2022-08-24T21:36:52.475Z,52.00
2022-08-24T21:39:19.524Z,52.20
2022-08-24T21:41:46.472Z,52.40
2022-08-24T21:44:13.214Z,52.40
2022-08-24T21:46:40.412Z,52.40
2022-08-24T21:49:12.010Z,52.50
2022-08-24T21:51:39.753Z,52.50
2022-08-24T21:54:06.598Z,52.50
2022-08-24T21:56:34.292Z,52.60
2022-08-24T21:59:01.279Z,52.70
2022-08-24T22:01:28.696Z,52.80
2022-08-24T22:03:56.191Z,52.90
2022-08-24T22:06:23.011Z,53.10
2022-08-24T22:08:49.978Z,53.40
2022-08-24T22:11:18.856Z,53.50
2022-08-24T22:13:46.707Z,53.70
2022-08-24T22:16:13.999Z,53.80
2022-08-24T22:18:40.996Z,53.80
2022-08-24T22:21:13.396Z,53.90
2022-08-24T22:23:40.910Z,54.10
2022-08-24T22:26:08.541Z,54.20
2022-08-24T22:28:37.032Z,54.20
2022-08-24T22:31:13.583Z,54.30
2022-08-24T22:33:40.353Z,54.40
2022-08-24T22:36:10.964Z,54.40
2022-08-24T22:38:39.226Z,54.60
2022-08-24T22:41:07.467Z,54.50
2022-08-24T22:43:53.349Z,54.60
2022-08-24T22:46:21.479Z,54.70
2022-08-24T22:48:48.738Z,54.80
2022-08-24T22:51:15.517Z,54.90
2022-08-24T22:53:42.397Z,55.00
2022-08-24T22:56:24.409Z,55.00
2022-08-24T22:58:52.050Z,55.20
2022-08-24T23:01:24.811Z,55.20
2022-08-24T23:03:53.475Z,55.30
2022-08-24T23:06:21.342Z,55.40
2022-08-24T23:08:48.603Z,55.50
2022-08-24T23:11:15.992Z,56.10
2022-08-24T23:13:43.037Z,55.60
2022-08-24T23:16:13.241Z,55.60
2022-08-24T23:18:58.682Z,55.70
2022-08-24T23:21:25.938Z,55.80
2022-08-24T23:23:54.887Z,55.90
2022-08-24T23:26:22.044Z,56.00
2022-08-24T23:28:50.220Z,56.00
2022-08-24T23:31:19.367Z,56.10
2022-08-24T23:33:46.073Z,56.20
2022-08-24T23:36:23.529Z,56.30
2022-08-24T23:38:52.533Z,56.40
2022-08-24T23:41:22.141Z,56.40
2022-08-24T23:43:49.157Z,56.60
2022-08-24T23:46:15.923Z,56.60
2022-08-24T23:48:42.666Z,56.80
2022-08-24T23:51:19.253Z,56.80
2022-08-24T23:53:48.027Z,56.90
2022-08-24T23:56:31.506Z,57.00
2022-08-24T23:59:07.470Z,57.20
